sensor_id;sensor_type;location;lat;lon;timestamp;P1;durP1;ratioP1;P2;durP2;ratioP2
1887;SDS011;944;51.574;6.980;2023-07-29T00:01:01;4.23;;;3.60;;
1887;SDS011;944;51.574;6.980;2023-07-29T00:40:43;3.70;;;3.40;;
1887;SDS011;944;51.574;6.980;2023-07-29T00:49:19;3.43;;;3.00;;
1887;SDS011;944;51.574;6.980;2023-07-29T01:17:38;4.87;;;3.90;;
1887;SDS011;944;51.574;6.980;2023-07-29T01:32:49;4.50;;;4.10;;
1887;SDS011;944;51.574;6.980;2023-07-29T01:59:18;3.77;;;3.10;;
1887;SDS011;944;51.574;6.980;2023-07-29T06:55:34;4.33;;;2.17;;
1887;SDS011;944;51.574;6.980;2023-07-29T06:58:01;2.50;;;2.13;;
1887;SDS011;944;51.574;6.980;2023-07-29T07:00:29;5.50;;;2.20;;
1887;SDS011;944;51.574;6.980;2023-07-29T07:35:47;6.90;;;1.87;;
1887;SDS011;944;51.574;6.980;2023-07-29T07:38:19;2.40;;;2.00;;
1887;SDS011;944;51.574;6.980;2023-07-29T07:43:14;2.73;;;2.20;;
1887;SDS011;944;51.574;6.980;2023-07-29T07:46:01;2.27;;;1.90;;
1887;SDS011;944;51.574;6.980;2023-07-29T07:48:40;3.73;;;1.87;;
1887;SDS011;944;51.574;6.980;2023-07-29T07:51:12;4.40;;;1.93;;
1887;SDS011;944;51.574;6.980;2023-07-29T07:53:44;6.83;;;2.37;;
1887;SDS011;944;51.574;6.980;2023-07-29T07:59:52;2.20;;;2.00;;
1887;SDS011;944;51.574;6.980;2023-07-29T08:02:22;2.00;;;1.90;;
1887;SDS011;944;51.574;6.980;2023-07-29T08:04:54;3.07;;;1.83;;
1887;SDS011;944;51.574;6.980;2023-07-29T08:07:24;2.20;;;2.00;;
1887;SDS011;944;51.574;6.980;2023-07-29T08:21:23;3.57;;;2.23;;
1887;SDS011;944;51.574;6.980;2023-07-29T08:24:42;4.90;;;2.90;;
1887;SDS011;944;51.574;6.980;2023-07-29T08:30:17;3.10;;;2.40;;
1887;SDS011;944;51.574;6.980;2023-07-29T08:36:26;7.03;;;3.20;;
1887;SDS011;944;51.574;6.980;2023-07-29T08:38:53;4.77;;;2.93;;
1887;SDS011;944;51.574;6.980;2023-07-29T08:48:54;2.83;;;2.37;;
1887;SDS011;944;51.574;6.980;2023-07-29T08:55:49;2.57;;;2.37;;
1887;SDS011;944;51.574;6.980;2023-07-29T08:58:20;2.63;;;1.90;;
1887;SDS011;944;51.574;6.980;2023-07-29T09:01:52;2.10;;;2.00;;
1887;SDS011;944;51.574;6.980;2023-07-29T09:04:28;3.57;;;1.80;;
1887;SDS011;944;51.574;6.980;2023-07-29T09:07:10;1.90;;;1.80;;
1887;SDS011;944;51.574;6.980;2023-07-29T09:09:37;3.30;;;2.60;;
1887;SDS011;944;51.574;6.980;2023-07-29T09:12:10;6.53;;;1.70;;
1887;SDS011;944;51.574;6.980;2023-07-29T09:14:40;1.80;;;1.70;;
1887;SDS011;944;51.574;6.980;2023-07-29T09:17:14;5.23;;;2.03;;
1887;SDS011;944;51.574;6.980;2023-07-29T09:19:42;10.00;;;6.37;;
1887;SDS011;944;51.574;6.980;2023-07-29T09:22:17;5.07;;;2.43;;
1887;SDS011;944;51.574;6.980;2023-07-29T09:24:48;2.33;;;2.10;;
1887;SDS011;944;51.574;6.980;2023-07-29T09:27:30;2.50;;;2.27;;
1887;SDS011;944;51.574;6.980;2023-07-29T09:30:07;2.20;;;1.87;;
1887;SDS011;944;51.574;6.980;2023-07-29T09:32:42;3.37;;;1.83;;
1887;SDS011;944;51.574;6.980;2023-07-29T09:35:11;1.90;;;1.80;;
1887;SDS011;944;51.574;6.980;2023-07-29T09:37:38;4.03;;;1.90;;
1887;SDS011;944;51.574;6.980;2023-07-29T09:40:06;4.90;;;2.20;;
1887;SDS011;944;51.574;6.980;2023-07-29T09:42:40;3.23;;;2.03;;
1887;SDS011;944;51.574;6.980;2023-07-29T09:45:19;2.43;;;1.80;;
1887;SDS011;944;51.574;6.980;2023-07-29T09:48:07;2.97;;;1.90;;
1887;SDS011;944;51.574;6.980;2023-07-29T09:50:37;1.83;;;1.73;;
1887;SDS011;944;51.574;6.980;2023-07-29T09:53:04;1.60;;;1.50;;
1887;SDS011;944;51.574;6.980;2023-07-29T09:55:34;4.60;;;1.60;;
1887;SDS011;944;51.574;6.980;2023-07-29T09:58:01;2.90;;;2.30;;
1887;SDS011;944;51.574;6.980;2023-07-29T10:00:32;2.47;;;1.90;;
1887;SDS011;944;51.574;6.980;2023-07-29T10:02:59;1.90;;;1.73;;
1887;SDS011;944;51.574;6.980;2023-07-29T10:05:27;2.20;;;1.80;;
1887;SDS011;944;51.574;6.980;2023-07-29T10:08:00;3.27;;;1.83;;
1887;SDS011;944;51.574;6.980;2023-07-29T10:10:27;3.40;;;1.70;;
1887;SDS011;944;51.574;6.980;2023-07-29T10:12:55;2.83;;;2.07;;
1887;SDS011;944;51.574;6.980;2023-07-29T10:15:23;1.90;;;1.73;;
1887;SDS011;944;51.574;6.980;2023-07-29T10:17:51;3.27;;;2.17;;
1887;SDS011;944;51.574;6.980;2023-07-29T10:20:19;2.30;;;1.67;;
1887;SDS011;944;51.574;6.980;2023-07-29T10:25:23;1.73;;;1.63;;
1887;SDS011;944;51.574;6.980;2023-07-29T10:27:56;2.73;;;2.10;;
1887;SDS011;944;51.574;6.980;2023-07-29T10:30:29;4.20;;;1.83;;
1887;SDS011;944;51.574;6.980;2023-07-29T10:32:58;3.27;;;1.77;;
1887;SDS011;944;51.574;6.980;2023-07-29T10:35:28;2.10;;;1.80;;
1887;SDS011;944;51.574;6.980;2023-07-29T10:37:56;1.33;;;1.33;;
1887;SDS011;944;51.574;6.980;2023-07-29T10:44:06;5.87;;;2.00;;
1887;SDS011;944;51.574;6.980;2023-07-29T10:47:14;7.97;;;1.87;;
1887;SDS011;944;51.574;6.980;2023-07-29T10:49:42;5.90;;;2.00;;
1887;SDS011;944;51.574;6.980;2023-07-29T10:52:12;3.30;;;1.70;;
1887;SDS011;944;51.574;6.980;2023-07-29T10:54:43;3.20;;;2.27;;
1887;SDS011;944;51.574;6.980;2023-07-29T10:57:14;3.07;;;2.47;;
1887;SDS011;944;51.574;6.980;2023-07-29T10:59:55;4.40;;;2.07;;
1887;SDS011;944;51.574;6.980;2023-07-29T11:02:28;2.30;;;2.10;;
1887;SDS011;944;51.574;6.980;2023-07-29T11:04:56;2.97;;;2.23;;
1887;SDS011;944;51.574;6.980;2023-07-29T11:07:26;7.50;;;1.90;;
1887;SDS011;944;51.574;6.980;2023-07-29T11:09:55;3.40;;;2.20;;
1887;SDS011;944;51.574;6.980;2023-07-29T11:12:40;1.73;;;1.63;;
1887;SDS011;944;51.574;6.980;2023-07-29T11:21:37;3.00;;;2.00;;
1887;SDS011;944;51.574;6.980;2023-07-29T11:24:04;3.30;;;2.00;;
1887;SDS011;944;51.574;6.980;2023-07-29T11:26:32;3.23;;;2.33;;
1887;SDS011;944;51.574;6.980;2023-07-29T11:29:03;5.27;;;2.00;;
1887;SDS011;944;51.574;6.980;2023-07-29T11:31:39;2.73;;;1.87;;
1887;SDS011;944;51.574;6.980;2023-07-29T11:34:07;1.93;;;1.63;;
1887;SDS011;944;51.574;6.980;2023-07-29T11:36:37;2.83;;;1.93;;
1887;SDS011;944;51.574;6.980;2023-07-29T11:39:11;3.33;;;1.60;;
1887;SDS011;944;51.574;6.980;2023-07-29T11:41:41;3.00;;;1.70;;
1887;SDS011;944;51.574;6.980;2023-07-29T11:44:09;2.00;;;1.80;;
1887;SDS011;944;51.574;6.980;2023-07-29T11:46:44;1.70;;;1.60;;
1887;SDS011;944;51.574;6.980;2023-07-29T11:49:15;6.93;;;1.60;;
1887;SDS011;944;51.574;6.980;2023-07-29T11:51:49;4.83;;;2.30;;
1887;SDS011;944;51.574;6.980;2023-07-29T11:54:16;2.20;;;1.63;;
1887;SDS011;944;51.574;6.980;2023-07-29T11:56:46;1.50;;;1.40;;
1887;SDS011;944;51.574;6.980;2023-07-29T11:59:14;2.63;;;1.90;;
1887;SDS011;944;51.574;6.980;2023-07-29T12:01:41;1.70;;;1.60;;
1887;SDS011;944;51.574;6.980;2023-07-29T12:04:11;5.00;;;1.80;;
1887;SDS011;944;51.574;6.980;2023-07-29T12:06:42;3.10;;;1.70;;
1887;SDS011;944;51.574;6.980;2023-07-29T12:09:09;3.17;;;1.60;;
1887;SDS011;944;51.574;6.980;2023-07-29T12:11:38;1.70;;;1.60;;
1887;SDS011;944;51.574;6.980;2023-07-29T12:14:16;1.77;;;1.63;;
1887;SDS011;944;51.574;6.980;2023-07-29T12:16:47;4.20;;;1.87;;
1887;SDS011;944;51.574;6.980;2023-07-29T12:19:17;1.90;;;1.80;;
1887;SDS011;944;51.574;6.980;2023-07-29T12:21:44;1.90;;;1.50;;
1887;SDS011;944;51.574;6.980;2023-07-29T12:24:11;2.20;;;1.70;;
1887;SDS011;944;51.574;6.980;2023-07-29T12:26:39;2.60;;;1.50;;
1887;SDS011;944;51.574;6.980;2023-07-29T12:29:11;2.70;;;1.63;;
1887;SDS011;944;51.574;6.980;2023-07-29T12:31:38;1.77;;;1.63;;
1887;SDS011;944;51.574;6.980;2023-07-29T12:34:07;2.70;;;1.80;;
1887;SDS011;944;51.574;6.980;2023-07-29T12:36:41;4.27;;;2.10;;
1887;SDS011;944;51.574;6.980;2023-07-29T12:39:16;3.00;;;1.50;;
1887;SDS011;944;51.574;6.980;2023-07-29T12:41:44;2.60;;;1.90;;
1887;SDS011;944;51.574;6.980;2023-07-29T12:44:14;1.67;;;1.57;;
1887;SDS011;944;51.574;6.980;2023-07-29T12:46:41;1.60;;;1.50;;
1887;SDS011;944;51.574;6.980;2023-07-29T12:49:10;1.70;;;1.57;;
1887;SDS011;944;51.574;6.980;2023-07-29T12:51:38;1.93;;;1.80;;
1887;SDS011;944;51.574;6.980;2023-07-29T12:54:05;2.80;;;2.00;;
1887;SDS011;944;51.574;6.980;2023-07-29T12:56:32;1.83;;;1.73;;
1887;SDS011;944;51.574;6.980;2023-07-29T12:59:00;1.87;;;1.70;;
1887;SDS011;944;51.574;6.980;2023-07-29T13:01:28;3.20;;;1.53;;
1887;SDS011;944;51.574;6.980;2023-07-29T13:03:55;2.00;;;1.73;;
1887;SDS011;944;51.574;6.980;2023-07-29T13:06:24;1.80;;;1.70;;
1887;SDS011;944;51.574;6.980;2023-07-29T13:08:51;6.67;;;2.00;;
1887;SDS011;944;51.574;6.980;2023-07-29T13:11:18;2.93;;;1.63;;
1887;SDS011;944;51.574;6.980;2023-07-29T13:13:45;3.47;;;1.80;;
1887;SDS011;944;51.574;6.980;2023-07-29T13:16:12;6.57;;;2.00;;
1887;SDS011;944;51.574;6.980;2023-07-29T13:18:40;5.90;;;1.80;;
1887;SDS011;944;51.574;6.980;2023-07-29T13:21:07;3.23;;;1.90;;
1887;SDS011;944;51.574;6.980;2023-07-29T13:23:35;2.57;;;2.37;;
1887;SDS011;944;51.574;6.980;2023-07-29T13:26:02;2.37;;;1.70;;
1887;SDS011;944;51.574;6.980;2023-07-29T13:28:29;2.90;;;1.70;;
1887;SDS011;944;51.574;6.980;2023-07-29T13:30:59;4.60;;;2.87;;
1887;SDS011;944;51.574;6.980;2023-07-29T13:33:28;1.93;;;1.83;;
1887;SDS011;944;51.574;6.980;2023-07-29T13:35:59;1.93;;;1.83;;
1887;SDS011;944;51.574;6.980;2023-07-29T13:38:28;2.50;;;2.00;;
1887;SDS011;944;51.574;6.980;2023-07-29T13:40:56;2.53;;;1.77;;
1887;SDS011;944;51.574;6.980;2023-07-29T13:43:26;2.70;;;2.10;;
1887;SDS011;944;51.574;6.980;2023-07-29T13:45:53;2.20;;;2.00;;
1887;SDS011;944;51.574;6.980;2023-07-29T13:48:20;6.00;;;1.90;;
1887;SDS011;944;51.574;6.980;2023-07-29T13:50:47;2.43;;;2.23;;
1887;SDS011;944;51.574;6.980;2023-07-29T13:53:17;2.10;;;1.90;;
1887;SDS011;944;51.574;6.980;2023-07-29T13:55:44;5.50;;;2.60;;
1887;SDS011;944;51.574;6.980;2023-07-29T13:58:16;4.60;;;2.37;;
1887;SDS011;944;51.574;6.980;2023-07-29T14:00:47;5.07;;;2.43;;
1887;SDS011;944;51.574;6.980;2023-07-29T14:03:28;9.97;;;1.93;;
1887;SDS011;944;51.574;6.980;2023-07-29T14:05:55;4.27;;;1.80;;
1887;SDS011;944;51.574;6.980;2023-07-29T14:12:05;7.33;;;2.30;;
1887;SDS011;944;51.574;6.980;2023-07-29T14:14:40;4.10;;;2.00;;
1887;SDS011;944;51.574;6.980;2023-07-29T14:17:10;2.80;;;1.50;;
1887;SDS011;944;51.574;6.980;2023-07-29T14:19:37;5.83;;;2.10;;
1887;SDS011;944;51.574;6.980;2023-07-29T14:22:05;4.20;;;2.00;;
1887;SDS011;944;51.574;6.980;2023-07-29T14:24:32;5.03;;;2.87;;
1887;SDS011;944;51.574;6.980;2023-07-29T14:26:59;2.47;;;1.63;;
1887;SDS011;944;51.574;6.980;2023-07-29T14:29:30;5.70;;;2.23;;
1887;SDS011;944;51.574;6.980;2023-07-29T14:31:58;3.67;;;1.70;;
1887;SDS011;944;51.574;6.980;2023-07-29T14:34:28;4.90;;;2.33;;
1887;SDS011;944;51.574;6.980;2023-07-29T14:36:55;2.70;;;1.70;;
1887;SDS011;944;51.574;6.980;2023-07-29T14:39:22;3.80;;;2.00;;
1887;SDS011;944;51.574;6.980;2023-07-29T14:41:49;17.07;;;3.90;;
1887;SDS011;944;51.574;6.980;2023-07-29T14:44:16;7.40;;;1.90;;
1887;SDS011;944;51.574;6.980;2023-07-29T14:46:43;6.00;;;2.10;;
1887;SDS011;944;51.574;6.980;2023-07-29T14:49:14;3.50;;;1.90;;
1887;SDS011;944;51.574;6.980;2023-07-29T14:51:41;2.00;;;1.80;;
1887;SDS011;944;51.574;6.980;2023-07-29T14:54:08;2.17;;;1.97;;
1887;SDS011;944;51.574;6.980;2023-07-29T14:56:35;3.10;;;2.40;;
1887;SDS011;944;51.574;6.980;2023-07-29T14:59:04;3.93;;;2.43;;
1887;SDS011;944;51.574;6.980;2023-07-29T15:01:33;2.40;;;2.20;;
1887;SDS011;944;51.574;6.980;2023-07-29T15:04:00;2.90;;;2.60;;
1887;SDS011;944;51.574;6.980;2023-07-29T15:06:29;9.63;;;2.70;;
1887;SDS011;944;51.574;6.980;2023-07-29T15:08:56;4.83;;;2.90;;
1887;SDS011;944;51.574;6.980;2023-07-29T15:11:23;5.03;;;2.80;;
1887;SDS011;944;51.574;6.980;2023-07-29T15:13:50;2.50;;;2.30;;
1887;SDS011;944;51.574;6.980;2023-07-29T15:16:17;3.10;;;2.80;;
1887;SDS011;944;51.574;6.980;2023-07-29T15:18:44;5.70;;;3.13;;
1887;SDS011;944;51.574;6.980;2023-07-29T15:21:11;6.90;;;4.60;;
1887;SDS011;944;51.574;6.980;2023-07-29T15:23:40;3.20;;;2.80;;
1887;SDS011;944;51.574;6.980;2023-07-29T15:26:07;2.83;;;2.63;;
1887;SDS011;944;51.574;6.980;2023-07-29T15:28:34;3.10;;;2.80;;
1887;SDS011;944;51.574;6.980;2023-07-29T15:31:01;4.40;;;2.97;;
1887;SDS011;944;51.574;6.980;2023-07-29T15:33:28;4.47;;;2.97;;
1887;SDS011;944;51.574;6.980;2023-07-29T15:35:55;4.40;;;2.80;;
1887;SDS011;944;51.574;6.980;2023-07-29T15:38:22;5.60;;;3.30;;
1887;SDS011;944;51.574;6.980;2023-07-29T15:40:51;6.23;;;3.00;;
1887;SDS011;944;51.574;6.980;2023-07-29T15:43:18;5.60;;;3.20;;
1887;SDS011;944;51.574;6.980;2023-07-29T15:45:46;4.13;;;3.10;;
1887;SDS011;944;51.574;6.980;2023-07-29T15:48:13;5.33;;;2.90;;
1887;SDS011;944;51.574;6.980;2023-07-29T15:50:41;3.63;;;2.73;;
1887;SDS011;944;51.574;6.980;2023-07-29T15:53:08;5.47;;;3.57;;
1887;SDS011;944;51.574;6.980;2023-07-29T15:55:35;6.77;;;3.40;;
1887;SDS011;944;51.574;6.980;2023-07-29T15:58:06;5.17;;;3.50;;
1887;SDS011;944;51.574;6.980;2023-07-29T16:00:33;4.93;;;3.60;;
1887;SDS011;944;51.574;6.980;2023-07-29T16:03:00;7.03;;;3.90;;
1887;SDS011;944;51.574;6.980;2023-07-29T16:05:28;4.27;;;3.87;;
1887;SDS011;944;51.574;6.980;2023-07-29T16:07:56;5.30;;;4.10;;
1887;SDS011;944;51.574;6.980;2023-07-29T16:10:24;12.27;;;4.43;;
1887;SDS011;944;51.574;6.980;2023-07-29T16:12:53;6.13;;;4.60;;
1887;SDS011;944;51.574;6.980;2023-07-29T16:15:26;10.07;;;5.10;;
1887;SDS011;944;51.574;6.980;2023-07-29T16:17:56;8.03;;;4.57;;
1887;SDS011;944;51.574;6.980;2023-07-29T16:20:28;7.10;;;4.60;;
1887;SDS011;944;51.574;6.980;2023-07-29T16:23:06;6.70;;;4.60;;
1887;SDS011;944;51.574;6.980;2023-07-29T16:26:10;9.20;;;5.00;;
1887;SDS011;944;51.574;6.980;2023-07-29T16:36:01;9.93;;;4.70;;
1887;SDS011;944;51.574;6.980;2023-07-29T16:38:42;11.43;;;5.30;;
1887;SDS011;944;51.574;6.980;2023-07-29T16:42:25;9.40;;;4.60;;
1887;SDS011;944;51.574;6.980;2023-07-29T16:45:02;8.10;;;4.73;;
1887;SDS011;944;51.574;6.980;2023-07-29T16:47:56;11.23;;;5.50;;
1887;SDS011;944;51.574;6.980;2023-07-29T16:50:57;10.50;;;4.43;;
1887;SDS011;944;51.574;6.980;2023-07-29T16:57:23;4.23;;;3.10;;
1887;SDS011;944;51.574;6.980;2023-07-29T16:59:57;4.93;;;3.40;;
1887;SDS011;944;51.574;6.980;2023-07-29T17:02:33;3.97;;;3.43;;
1887;SDS011;944;51.574;6.980;2023-07-29T17:05:10;4.30;;;3.00;;
1887;SDS011;944;51.574;6.980;2023-07-29T17:07:42;4.90;;;3.10;;
1887;SDS011;944;51.574;6.980;2023-07-29T17:10:14;6.07;;;3.33;;
1887;SDS011;944;51.574;6.980;2023-07-29T17:12:45;2.90;;;2.60;;
1887;SDS011;944;51.574;6.980;2023-07-29T17:15:16;4.07;;;3.10;;
1887;SDS011;944;51.574;6.980;2023-07-29T17:17:50;6.80;;;2.87;;
1887;SDS011;944;51.574;6.980;2023-07-29T17:20:26;3.33;;;2.87;;
1887;SDS011;944;51.574;6.980;2023-07-29T17:22:55;4.50;;;2.80;;
1887;SDS011;944;51.574;6.980;2023-07-29T17:25:24;4.83;;;2.67;;
1887;SDS011;944;51.574;6.980;2023-07-29T17:27:53;3.10;;;2.80;;
1887;SDS011;944;51.574;6.980;2023-07-29T17:30:23;3.30;;;3.00;;
1887;SDS011;944;51.574;6.980;2023-07-29T17:33:02;2.90;;;2.70;;
1887;SDS011;944;51.574;6.980;2023-07-29T17:35:43;3.07;;;2.77;;
1887;SDS011;944;51.574;6.980;2023-07-29T17:38:15;5.00;;;3.50;;
1887;SDS011;944;51.574;6.980;2023-07-29T17:40:42;3.50;;;3.13;;
1887;SDS011;944;51.574;6.980;2023-07-29T17:43:11;3.37;;;3.03;;
1887;SDS011;944;51.574;6.980;2023-07-29T17:45:45;3.13;;;2.87;;
1887;SDS011;944;51.574;6.980;2023-07-29T17:48:46;3.30;;;3.00;;
1887;SDS011;944;51.574;6.980;2023-07-29T17:51:20;3.30;;;3.00;;
1887;SDS011;944;51.574;6.980;2023-07-29T17:53:53;3.50;;;3.20;;
1887;SDS011;944;51.574;6.980;2023-07-29T17:56:33;3.50;;;3.20;;
1887;SDS011;944;51.574;6.980;2023-07-29T17:59:20;3.60;;;3.20;;
1887;SDS011;944;51.574;6.980;2023-07-29T18:01:53;4.97;;;3.10;;
1887;SDS011;944;51.574;6.980;2023-07-29T18:04:50;3.30;;;3.00;;
1887;SDS011;944;51.574;6.980;2023-07-29T18:07:42;4.83;;;3.33;;
1887;SDS011;944;51.574;6.980;2023-07-29T18:13:20;3.70;;;3.30;;
1887;SDS011;944;51.574;6.980;2023-07-29T18:15:52;4.80;;;3.90;;
1887;SDS011;944;51.574;6.980;2023-07-29T18:18:26;5.77;;;3.37;;
1887;SDS011;944;51.574;6.980;2023-07-29T18:21:18;5.40;;;3.47;;
1887;SDS011;944;51.574;6.980;2023-07-29T18:23:49;5.03;;;3.30;;
1887;SDS011;944;51.574;6.980;2023-07-29T18:26:20;4.30;;;2.83;;
1887;SDS011;944;51.574;6.980;2023-07-29T18:28:47;3.83;;;3.13;;
1887;SDS011;944;51.574;6.980;2023-07-29T18:31:20;4.90;;;3.13;;
1887;SDS011;944;51.574;6.980;2023-07-29T18:33:49;5.93;;;2.83;;
1887;SDS011;944;51.574;6.980;2023-07-29T18:36:20;3.13;;;2.93;;
1887;SDS011;944;51.574;6.980;2023-07-29T18:38:49;6.10;;;2.97;;
1887;SDS011;944;51.574;6.980;2023-07-29T18:41:31;2.93;;;2.60;;
1887;SDS011;944;51.574;6.980;2023-07-29T18:44:07;5.83;;;3.10;;
1887;SDS011;944;51.574;6.980;2023-07-29T18:46:43;2.90;;;2.70;;
1887;SDS011;944;51.574;6.980;2023-07-29T18:49:14;5.07;;;3.47;;
1887;SDS011;944;51.574;6.980;2023-07-29T18:51:41;4.40;;;3.47;;
1887;SDS011;944;51.574;6.980;2023-07-29T18:54:12;4.20;;;3.27;;
1887;SDS011;944;51.574;6.980;2023-07-29T18:56:49;5.57;;;4.03;;
1887;SDS011;944;51.574;6.980;2023-07-29T18:59:17;6.70;;;4.13;;
1887;SDS011;944;51.574;6.980;2023-07-29T19:01:51;8.63;;;3.73;;
1887;SDS011;944;51.574;6.980;2023-07-29T19:04:20;14.33;;;4.50;;
1887;SDS011;944;51.574;6.980;2023-07-29T19:06:51;4.17;;;3.73;;
1887;SDS011;944;51.574;6.980;2023-07-29T19:09:22;4.13;;;3.83;;
1887;SDS011;944;51.574;6.980;2023-07-29T19:11:51;12.03;;;4.07;;
1887;SDS011;944;51.574;6.980;2023-07-29T19:14:24;3.80;;;3.40;;
1887;SDS011;944;51.574;6.980;2023-07-29T19:16:55;4.30;;;3.70;;
1887;SDS011;944;51.574;6.980;2023-07-29T19:19:22;3.83;;;3.40;;
1887;SDS011;944;51.574;6.980;2023-07-29T19:21:51;6.73;;;4.23;;
1887;SDS011;944;51.574;6.980;2023-07-29T19:24:22;4.07;;;3.67;;
1887;SDS011;944;51.574;6.980;2023-07-29T19:26:51;3.83;;;3.17;;
1887;SDS011;944;51.574;6.980;2023-07-29T19:29:19;3.67;;;3.23;;
1887;SDS011;944;51.574;6.980;2023-07-29T19:31:46;4.00;;;3.40;;
1887;SDS011;944;51.574;6.980;2023-07-29T19:34:13;4.53;;;4.13;;
1887;SDS011;944;51.574;6.980;2023-07-29T19:36:40;6.80;;;3.90;;
1887;SDS011;944;51.574;6.980;2023-07-29T19:39:07;11.17;;;4.37;;
1887;SDS011;944;51.574;6.980;2023-07-29T19:41:34;5.93;;;3.80;;
1887;SDS011;944;51.574;6.980;2023-07-29T19:44:03;7.80;;;3.60;;
1887;SDS011;944;51.574;6.980;2023-07-29T19:46:30;4.30;;;3.53;;
1887;SDS011;944;51.574;6.980;2023-07-29T19:48:57;6.40;;;3.90;;
1887;SDS011;944;51.574;6.980;2023-07-29T19:51:24;4.90;;;3.40;;
1887;SDS011;944;51.574;6.980;2023-07-29T19:53:51;3.80;;;3.40;;
1887;SDS011;944;51.574;6.980;2023-07-29T19:56:18;6.63;;;3.60;;
1887;SDS011;944;51.574;6.980;2023-07-29T19:58:45;6.27;;;3.73;;
1887;SDS011;944;51.574;6.980;2023-07-29T20:01:14;4.80;;;3.70;;
1887;SDS011;944;51.574;6.980;2023-07-29T20:03:41;4.90;;;3.23;;
1887;SDS011;944;51.574;6.980;2023-07-29T20:06:08;7.53;;;4.10;;
1887;SDS011;944;51.574;6.980;2023-07-29T20:08:36;5.73;;;3.30;;
1887;SDS011;944;51.574;6.980;2023-07-29T20:11:05;9.80;;;3.70;;
1887;SDS011;944;51.574;6.980;2023-07-29T20:13:32;4.20;;;3.67;;
1887;SDS011;944;51.574;6.980;2023-07-29T20:15:59;5.70;;;3.57;;
1887;SDS011;944;51.574;6.980;2023-07-29T20:18:27;6.47;;;3.43;;
1887;SDS011;944;51.574;6.980;2023-07-29T20:20:54;7.10;;;3.77;;
1887;SDS011;944;51.574;6.980;2023-07-29T20:23:21;3.37;;;3.07;;
1887;SDS011;944;51.574;6.980;2023-07-29T20:25:48;3.97;;;3.00;;
1887;SDS011;944;51.574;6.980;2023-07-29T20:28:15;5.00;;;3.57;;
1887;SDS011;944;51.574;6.980;2023-07-29T20:30:49;4.37;;;3.20;;
1887;SDS011;944;51.574;6.980;2023-07-29T20:33:21;4.33;;;3.40;;
1887;SDS011;944;51.574;6.980;2023-07-29T20:35:53;5.10;;;3.33;;
1887;SDS011;944;51.574;6.980;2023-07-29T20:38:22;7.27;;;3.70;;
1887;SDS011;944;51.574;6.980;2023-07-29T20:40:49;4.60;;;3.97;;
1887;SDS011;944;51.574;6.980;2023-07-29T20:43:17;9.07;;;3.90;;
1887;SDS011;944;51.574;6.980;2023-07-29T20:45:44;5.33;;;4.17;;
1887;SDS011;944;51.574;6.980;2023-07-29T20:48:12;6.13;;;4.07;;
1887;SDS011;944;51.574;6.980;2023-07-29T20:50:39;4.23;;;3.83;;
1887;SDS011;944;51.574;6.980;2023-07-29T20:53:08;4.80;;;3.83;;
1887;SDS011;944;51.574;6.980;2023-07-29T20:55:36;4.40;;;4.00;;
1887;SDS011;944;51.574;6.980;2023-07-29T20:58:03;8.03;;;3.80;;
1887;SDS011;944;51.574;6.980;2023-07-29T21:00:30;4.53;;;3.67;;
1887;SDS011;944;51.574;6.980;2023-07-29T21:02:57;4.60;;;4.20;;
1887;SDS011;944;51.574;6.980;2023-07-29T21:05:24;5.07;;;3.60;;
1887;SDS011;944;51.574;6.980;2023-07-29T21:07:52;5.27;;;3.60;;
1887;SDS011;944;51.574;6.980;2023-07-29T21:10:20;4.80;;;4.00;;
1887;SDS011;944;51.574;6.980;2023-07-29T21:12:47;5.60;;;4.10;;
1887;SDS011;944;51.574;6.980;2023-07-29T21:15:14;5.80;;;3.90;;
1887;SDS011;944;51.574;6.980;2023-07-29T21:17:41;12.73;;;4.37;;
1887;SDS011;944;51.574;6.980;2023-07-29T21:20:08;5.80;;;3.93;;
1887;SDS011;944;51.574;6.980;2023-07-29T21:22:36;4.27;;;3.60;;
1887;SDS011;944;51.574;6.980;2023-07-29T21:25:03;5.03;;;4.13;;
1887;SDS011;944;51.574;6.980;2023-07-29T21:27:33;4.20;;;3.80;;
1887;SDS011;944;51.574;6.980;2023-07-29T21:30:00;6.60;;;4.77;;
1887;SDS011;944;51.574;6.980;2023-07-29T21:32:28;9.17;;;4.70;;
1887;SDS011;944;51.574;6.980;2023-07-29T21:34:55;5.60;;;4.50;;
1887;SDS011;944;51.574;6.980;2023-07-29T21:37:26;10.73;;;4.40;;
1887;SDS011;944;51.574;6.980;2023-07-29T21:40:24;5.93;;;4.70;;
1887;SDS011;944;51.574;6.980;2023-07-29T21:43:23;7.87;;;4.70;;
1887;SDS011;944;51.574;6.980;2023-07-29T21:45:50;8.00;;;4.80;;
1887;SDS011;944;51.574;6.980;2023-07-29T21:48:17;7.33;;;4.70;;
1887;SDS011;944;51.574;6.980;2023-07-29T21:50:44;7.77;;;4.60;;
1887;SDS011;944;51.574;6.980;2023-07-29T21:53:11;9.17;;;5.03;;
1887;SDS011;944;51.574;6.980;2023-07-29T21:55:38;7.63;;;5.13;;
1887;SDS011;944;51.574;6.980;2023-07-29T21:58:06;6.73;;;5.20;;
1887;SDS011;944;51.574;6.980;2023-07-29T22:00:35;5.30;;;4.80;;
1887;SDS011;944;51.574;6.980;2023-07-29T22:03:02;5.63;;;4.80;;
1887;SDS011;944;51.574;6.980;2023-07-29T22:05:29;9.00;;;5.77;;
1887;SDS011;944;51.574;6.980;2023-07-29T22:07:57;10.37;;;5.83;;
1887;SDS011;944;51.574;6.980;2023-07-29T22:10:24;16.63;;;6.70;;
1887;SDS011;944;51.574;6.980;2023-07-29T22:12:51;9.33;;;6.10;;
1887;SDS011;944;51.574;6.980;2023-07-29T22:15:19;6.90;;;5.80;;
1887;SDS011;944;51.574;6.980;2023-07-29T22:17:48;7.50;;;5.77;;
1887;SDS011;944;51.574;6.980;2023-07-29T22:20:15;14.40;;;6.13;;
1887;SDS011;944;51.574;6.980;2023-07-29T22:22:42;10.97;;;6.07;;
1887;SDS011;944;51.574;6.980;2023-07-29T22:25:09;8.97;;;6.17;;
1887;SDS011;944;51.574;6.980;2023-07-29T22:27:36;12.23;;;6.80;;
1887;SDS011;944;51.574;6.980;2023-07-29T22:30:04;8.07;;;6.10;;
1887;SDS011;944;51.574;6.980;2023-07-29T22:32:32;8.27;;;6.90;;
1887;SDS011;944;51.574;6.980;2023-07-29T22:35:01;11.03;;;6.87;;
1887;SDS011;944;51.574;6.980;2023-07-29T22:37:27;15.70;;;7.80;;
1887;SDS011;944;51.574;6.980;2023-07-29T22:39:54;7.60;;;6.80;;
1887;SDS011;944;51.574;6.980;2023-07-29T22:42:21;9.70;;;8.70;;
1887;SDS011;944;51.574;6.980;2023-07-29T22:44:48;12.17;;;9.43;;
1887;SDS011;944;51.574;6.980;2023-07-29T22:47:15;9.93;;;8.93;;
1887;SDS011;944;51.574;6.980;2023-07-29T22:49:42;11.50;;;8.80;;
1887;SDS011;944;51.574;6.980;2023-07-29T22:52:11;8.90;;;8.00;;
1887;SDS011;944;51.574;6.980;2023-07-29T22:54:38;10.97;;;9.20;;
1887;SDS011;944;51.574;6.980;2023-07-29T22:57:06;14.03;;;8.47;;
1887;SDS011;944;51.574;6.980;2023-07-29T22:59:33;15.80;;;9.80;;
1887;SDS011;944;51.574;6.980;2023-07-29T23:02:00;15.07;;;9.83;;
1887;SDS011;944;51.574;6.980;2023-07-29T23:04:27;16.60;;;11.13;;
1887;SDS011;944;51.574;6.980;2023-07-29T23:06:54;13.30;;;9.30;;
1887;SDS011;944;51.574;6.980;2023-07-29T23:09:23;10.80;;;8.63;;
1887;SDS011;944;51.574;6.980;2023-07-29T23:11:50;16.03;;;8.97;;
1887;SDS011;944;51.574;6.980;2023-07-29T23:14:17;13.93;;;8.07;;
1887;SDS011;944;51.574;6.980;2023-07-29T23:16:44;11.70;;;7.87;;
1887;SDS011;944;51.574;6.980;2023-07-29T23:19:11;10.63;;;7.37;;
1887;SDS011;944;51.574;6.980;2023-07-29T23:21:38;12.80;;;6.20;;
1887;SDS011;944;51.574;6.980;2023-07-29T23:24:05;11.07;;;6.23;;
1887;SDS011;944;51.574;6.980;2023-07-29T23:26:34;11.33;;;6.13;;
1887;SDS011;944;51.574;6.980;2023-07-29T23:29:01;17.43;;;6.67;;
1887;SDS011;944;51.574;6.980;2023-07-29T23:31:28;12.67;;;5.90;;
1887;SDS011;944;51.574;6.980;2023-07-29T23:33:55;6.60;;;5.20;;
1887;SDS011;944;51.574;6.980;2023-07-29T23:36:22;10.70;;;5.53;;
1887;SDS011;944;51.574;6.980;2023-07-29T23:38:51;7.00;;;5.13;;
1887;SDS011;944;51.574;6.980;2023-07-29T23:41:18;5.60;;;4.47;;
1887;SDS011;944;51.574;6.980;2023-07-29T23:43:47;8.43;;;4.50;;
1887;SDS011;944;51.574;6.980;2023-07-29T23:46:17;14.10;;;4.43;;
1887;SDS011;944;51.574;6.980;2023-07-29T23:48:44;5.90;;;3.90;;
1887;SDS011;944;51.574;6.980;2023-07-29T23:51:11;13.10;;;4.30;;
1887;SDS011;944;51.574;6.980;2023-07-29T23:53:38;10.07;;;4.33;;
1887;SDS011;944;51.574;6.980;2023-07-29T23:56:05;7.30;;;3.43;;
1887;SDS011;944;51.574;6.980;2023-07-29T23:58:32;5.63;;;3.70;;
